createdAt,value
2022-11-09T00:01:48.741Z,9.30
2022-11-09T00:04:21.406Z,9.40
2022-11-09T00:06:51.509Z,9.90
2022-11-09T00:09:21.784Z,9.57
2022-11-09T00:11:52.287Z,12.13
2022-11-09T00:14:22.874Z,9.57
2022-11-09T00:16:53.062Z,8.13
2022-11-09T00:19:25.853Z,9.67
2022-11-09T00:21:56.649Z,10.10
2022-11-09T00:24:26.741Z,8.00
2022-11-09T00:26:56.822Z,10.80
2022-11-09T00:29:26.855Z,9.70
2022-11-09T00:31:56.856Z,8.47
2022-11-09T00:34:29.457Z,9.10
2022-11-09T00:36:59.888Z,10.13
2022-11-09T00:39:29.933Z,10.93
2022-11-09T00:42:01.653Z,10.90
2022-11-09T00:44:33.236Z,9.67
2022-11-09T00:47:03.316Z,9.50
2022-11-09T00:49:36.033Z,9.23
2022-11-09T00:52:06.101Z,8.63
2022-11-09T00:54:36.096Z,10.93
2022-11-09T00:57:06.239Z,10.17
2022-11-09T00:59:36.340Z,9.80
2022-11-09T01:02:07.076Z,10.50
2022-11-09T01:04:40.219Z,9.73
2022-11-09T01:07:11.033Z,10.70
2022-11-09T01:09:42.209Z,10.97
2022-11-09T01:12:12.205Z,10.00
2022-11-09T01:14:42.296Z,9.97
2022-11-09T01:17:12.332Z,9.57
2022-11-09T01:19:45.226Z,10.53
2022-11-09T01:22:15.473Z,9.00
2022-11-09T01:24:45.601Z,10.13
2022-11-09T01:27:16.406Z,9.80
2022-11-09T01:29:46.506Z,10.30
2022-11-09T01:32:16.631Z,11.00
2022-11-09T01:34:50.344Z,10.80
2022-11-09T01:37:20.816Z,9.90
2022-11-09T01:39:50.975Z,10.20
2022-11-09T01:42:27.446Z,10.57
2022-11-09T01:45:28.820Z,10.03
2022-11-09T01:48:08.036Z,9.40
2022-11-09T01:50:47.440Z,9.23
2022-11-09T01:53:23.303Z,9.87
2022-11-09T01:55:58.594Z,10.37
2022-11-09T01:58:35.432Z,11.53
2022-11-09T02:01:11.187Z,9.80
2022-11-09T02:03:48.651Z,11.20
2022-11-09T02:06:26.652Z,9.60
2022-11-09T02:09:12.600Z,9.60
2022-11-09T02:11:43.768Z,11.00
2022-11-09T02:14:15.599Z,10.30
2022-11-09T02:16:49.620Z,11.57
2022-11-09T02:19:19.750Z,10.10
2022-11-09T02:21:54.492Z,10.63
2022-11-09T02:24:27.607Z,10.70
2022-11-09T02:26:58.278Z,10.53
2022-11-09T02:29:37.295Z,12.43
2022-11-09T02:32:14.806Z,9.17
2022-11-09T02:34:44.835Z,9.70
2022-11-09T02:37:29.734Z,10.20
2022-11-09T02:40:03.301Z,10.40
2022-11-09T02:42:34.543Z,10.07
2022-11-09T02:45:05.827Z,9.27
2022-11-09T02:47:36.540Z,10.70
2022-11-09T02:50:09.960Z,11.27
2022-11-09T02:52:42.595Z,9.50
2022-11-09T02:55:13.794Z,9.77
2022-11-09T02:57:44.211Z,10.73
2022-11-09T03:00:18.121Z,9.90
2022-11-09T03:02:48.307Z,9.30
2022-11-09T03:05:19.502Z,9.17
2022-11-09T03:07:52.341Z,10.40
2022-11-09T03:10:23.126Z,9.27
2022-11-09T03:12:53.975Z,9.50
2022-11-09T03:15:24.005Z,9.70
2022-11-09T03:17:54.315Z,11.20
2022-11-09T03:20:25.270Z,12.27
2022-11-09T03:23:01.908Z,13.40
2022-11-09T03:25:34.038Z,12.30
2022-11-09T03:28:08.198Z,11.67
2022-11-09T03:30:38.595Z,10.97
2022-11-09T03:33:12.671Z,10.90
2022-11-09T03:35:44.185Z,11.70
2022-11-09T03:38:19.031Z,11.53
2022-11-09T03:40:50.418Z,11.57
2022-11-09T03:43:21.313Z,10.27
2022-11-09T03:45:51.813Z,10.23
2022-11-09T03:48:23.152Z,11.53
2022-11-09T03:50:53.366Z,10.73
2022-11-09T03:53:26.057Z,10.30
2022-11-09T03:55:56.303Z,10.60
2022-11-09T03:58:26.584Z,9.83
2022-11-09T04:00:57.285Z,11.17
2022-11-09T04:03:28.779Z,11.80
2022-11-09T04:06:00.994Z,11.70
2022-11-09T04:08:33.833Z,13.07
2022-11-09T04:11:03.993Z,11.77
2022-11-09T04:13:34.095Z,12.23
2022-11-09T04:16:04.118Z,11.47
2022-11-09T04:18:34.632Z,14.13
2022-11-09T04:21:04.842Z,13.50
2022-11-09T04:23:37.642Z,12.33
2022-11-09T04:26:07.949Z,12.53
2022-11-09T04:28:38.021Z,15.10
2022-11-09T04:31:08.441Z,13.57
2022-11-09T04:33:38.619Z,15.20
2022-11-09T04:36:09.623Z,16.80
2022-11-09T04:38:42.263Z,14.60
2022-11-09T04:41:12.376Z,14.80
2022-11-09T04:43:42.417Z,14.80
2022-11-09T04:46:12.481Z,14.00
2022-11-09T04:48:42.640Z,14.93
2022-11-09T04:51:13.985Z,15.93
2022-11-09T04:53:46.553Z,14.30
2022-11-09T04:56:16.643Z,14.90
2022-11-09T04:58:47.468Z,16.93
2022-11-09T05:01:18.332Z,16.07
2022-11-09T05:03:48.363Z,16.50
2022-11-09T05:06:42.843Z,12.80
2022-11-09T05:09:15.578Z,11.97
2022-11-09T05:11:45.655Z,13.30
2022-11-09T05:14:15.652Z,11.57
2022-11-09T05:16:45.832Z,12.13
2022-11-09T05:19:16.055Z,11.57
2022-11-09T05:21:46.220Z,12.70
2022-11-09T05:24:16.309Z,12.47
2022-11-09T05:26:46.386Z,15.17
2022-11-09T05:29:16.827Z,14.00
2022-11-09T05:31:51.943Z,13.07
2022-11-09T05:34:22.511Z,12.30
2022-11-09T05:36:52.498Z,13.87
2022-11-09T05:39:25.426Z,13.50
2022-11-09T05:41:55.509Z,14.27
2022-11-09T05:44:25.819Z,14.20
2022-11-09T05:46:55.841Z,14.20
2022-11-09T05:49:25.832Z,14.40
2022-11-09T05:51:55.976Z,13.60
2022-11-09T05:54:28.594Z,13.70
2022-11-09T05:56:58.617Z,14.03
2022-11-09T05:59:28.794Z,12.70
2022-11-09T06:01:59.423Z,12.63
2022-11-09T06:04:29.478Z,14.77
2022-11-09T06:06:59.706Z,13.10
2022-11-09T06:09:32.337Z,13.47
2022-11-09T06:12:02.706Z,12.40
2022-11-09T06:14:32.784Z,11.43
2022-11-09T06:17:02.921Z,11.87
2022-11-09T06:19:32.885Z,14.13
2022-11-09T06:22:02.878Z,13.33
2022-11-09T06:24:35.557Z,12.50
2022-11-09T06:27:05.627Z,14.23
2022-11-09T06:29:36.000Z,14.03
2022-11-09T06:32:06.613Z,15.77
2022-11-09T06:34:36.662Z,13.50
2022-11-09T06:37:06.631Z,12.77
2022-11-09T06:39:39.543Z,15.80
2022-11-09T06:42:09.674Z,15.00
2022-11-09T06:44:39.929Z,13.43
2022-11-09T06:47:10.007Z,13.70
2022-11-09T06:49:40.140Z,14.23
2022-11-09T06:52:10.553Z,14.03
2022-11-09T06:54:43.219Z,15.50
2022-11-09T06:57:13.289Z,14.33
2022-11-09T06:59:43.554Z,12.83
2022-11-09T07:02:20.346Z,12.63
2022-11-09T07:04:50.421Z,12.40
2022-11-09T07:07:26.434Z,16.90
2022-11-09T07:10:00.541Z,23.00
2022-11-09T07:12:30.761Z,18.47
2022-11-09T07:15:00.854Z,19.47
2022-11-09T07:17:33.677Z,16.97
2022-11-09T07:20:04.014Z,15.93
2022-11-09T07:22:34.932Z,16.60
2022-11-09T07:25:09.885Z,14.30
2022-11-09T07:27:40.149Z,14.57
2022-11-09T07:30:12.700Z,15.10
2022-11-09T07:33:08.017Z,16.00
2022-11-09T07:35:34.091Z,14.20
2022-11-09T07:38:04.720Z,13.23
2022-11-09T07:40:37.615Z,12.93
2022-11-09T07:43:09.711Z,12.00
2022-11-09T07:45:41.974Z,14.53
2022-11-09T07:48:15.299Z,13.40
2022-11-09T07:50:45.636Z,14.00
2022-11-09T07:53:18.305Z,12.50
2022-11-09T07:56:00.352Z,13.80
2022-11-09T07:58:31.299Z,11.50
2022-11-09T08:01:01.473Z,12.73
2022-11-09T08:03:31.516Z,11.97
2022-11-09T08:06:01.558Z,12.40
2022-11-09T08:08:31.554Z,12.50
2022-11-09T08:11:04.160Z,13.40
2022-11-09T08:13:34.223Z,18.73
2022-11-09T08:16:05.510Z,16.97
2022-11-09T08:18:35.644Z,15.47
2022-11-09T08:21:06.676Z,13.70
2022-11-09T08:23:36.992Z,15.17
2022-11-09T08:26:10.337Z,14.67
2022-11-09T08:28:41.079Z,12.87
2022-11-09T08:31:12.621Z,11.10
2022-11-09T08:33:44.435Z,10.87
2022-11-09T08:36:17.898Z,10.23
2022-11-09T08:38:48.936Z,10.43
2022-11-09T08:41:21.555Z,12.23
2022-11-09T08:43:51.576Z,11.50
2022-11-09T08:46:21.638Z,11.60
2022-11-09T08:48:51.625Z,11.30
2022-11-09T08:51:22.024Z,10.83
2022-11-09T08:53:52.066Z,10.60
2022-11-09T08:56:24.725Z,8.90
2022-11-09T08:58:54.822Z,10.03
2022-11-09T09:01:25.422Z,8.30
2022-11-09T09:03:55.531Z,8.77
2022-11-09T09:06:30.670Z,8.40
2022-11-09T09:09:01.295Z,7.73
2022-11-09T09:11:33.903Z,8.50
2022-11-09T09:14:03.922Z,8.87
2022-11-09T09:16:34.097Z,10.70
2022-11-09T09:19:04.257Z,10.37
2022-11-09T09:21:34.408Z,10.23
2022-11-09T09:24:04.643Z,8.27
2022-11-09T09:26:37.771Z,7.60
2022-11-09T09:29:08.163Z,8.83
2022-11-09T09:31:38.171Z,7.20
2022-11-09T09:34:08.728Z,7.30
2022-11-09T09:36:42.034Z,6.70
2022-11-09T09:39:15.302Z,6.43
2022-11-09T09:41:54.363Z,5.50
2022-11-09T09:44:33.141Z,6.67
2022-11-09T09:47:16.203Z,5.97
2022-11-09T09:49:52.827Z,6.93
2022-11-09T09:52:30.528Z,6.70
2022-11-09T09:55:10.356Z,6.30
2022-11-09T09:57:46.029Z,6.10
2022-11-09T10:00:25.928Z,6.90
2022-11-09T10:02:57.851Z,7.80
2022-11-09T10:05:46.788Z,7.77
2022-11-09T10:08:35.673Z,8.10
2022-11-09T10:11:22.208Z,7.40
2022-11-09T10:14:20.908Z,9.90
2022-11-09T10:17:03.789Z,9.20
2022-11-09T10:19:57.791Z,5.57
2022-11-09T10:22:38.767Z,3.03
2022-11-09T10:25:27.482Z,2.93
2022-11-09T10:28:12.799Z,2.90
2022-11-09T10:30:46.680Z,2.67
2022-11-09T10:33:21.679Z,2.40
2022-11-09T10:36:05.313Z,2.70
2022-11-09T10:38:46.516Z,2.90
2022-11-09T10:41:42.172Z,5.50
2022-11-09T10:44:30.698Z,5.90
2022-11-09T10:47:22.897Z,5.63
2022-11-09T10:50:29.341Z,5.70
2022-11-09T10:53:21.262Z,5.13
2022-11-09T10:56:21.229Z,5.30
2022-11-09T10:59:51.867Z,5.83
2022-11-09T11:02:53.329Z,5.50
2022-11-09T11:05:42.475Z,5.53
2022-11-09T11:08:42.472Z,4.93
2022-11-09T11:11:35.608Z,4.90
2022-11-09T11:14:35.174Z,3.70
2022-11-09T11:17:30.778Z,3.13
2022-11-09T11:20:37.452Z,5.83
2022-11-09T11:23:28.239Z,5.70
2022-11-09T11:26:40.624Z,5.30
2022-11-09T11:29:49.670Z,4.90
2022-11-09T11:32:38.514Z,3.93
2022-11-09T11:35:42.736Z,4.50
2022-11-09T11:38:40.032Z,5.17
2022-11-09T11:41:50.710Z,4.77
2022-11-09T11:45:12.802Z,5.03
2022-11-09T11:48:35.718Z,5.00
2022-11-09T11:51:40.400Z,4.97
2022-11-09T11:54:47.779Z,5.00
2022-11-09T11:57:50.266Z,5.20
2022-11-09T12:00:49.203Z,4.93
2022-11-09T12:04:04.144Z,5.23
2022-11-09T12:07:29.092Z,4.20
2022-11-09T12:10:38.291Z,4.80
2022-11-09T12:13:55.025Z,4.97
2022-11-09T12:16:55.500Z,5.10
2022-11-09T12:20:05.923Z,4.83
2022-11-09T12:23:20.250Z,4.53
2022-11-09T12:26:27.025Z,5.07
2022-11-09T12:29:24.392Z,4.00
2022-11-09T12:32:31.798Z,3.93
2022-11-09T12:35:36.658Z,4.50
2022-11-09T12:38:34.069Z,4.20
2022-11-09T12:41:30.278Z,3.90
2022-11-09T12:44:26.856Z,3.60
2022-11-09T12:47:22.497Z,4.70
2022-11-09T12:50:17.566Z,3.90
2022-11-09T12:53:08.122Z,4.53
2022-11-09T12:56:05.740Z,4.20
2022-11-09T12:58:54.523Z,4.50
2022-11-09T13:01:57.693Z,4.10
2022-11-09T13:05:00.799Z,3.10
2022-11-09T13:07:54.371Z,2.70
2022-11-09T13:10:43.521Z,2.77
2022-11-09T13:13:35.079Z,2.50
2022-11-09T13:16:38.849Z,3.30
2022-11-09T13:19:56.924Z,2.90
2022-11-09T13:23:03.111Z,3.00
2022-11-09T13:25:55.481Z,2.60
2022-11-09T13:29:34.550Z,2.77
2022-11-09T13:32:31.765Z,2.47
2022-11-09T13:36:01.905Z,3.20
2022-11-09T13:39:32.384Z,3.23
2022-11-09T13:42:36.213Z,2.77
2022-11-09T13:45:32.688Z,2.83
2022-11-09T13:48:45.231Z,3.73
2022-11-09T13:51:49.509Z,3.57
2022-11-09T13:54:40.341Z,4.20
2022-11-09T13:57:30.320Z,4.43
2022-11-09T14:00:25.727Z,4.17
2022-11-09T14:03:25.774Z,4.40
2022-11-09T14:06:16.704Z,4.23
2022-11-09T14:09:06.829Z,3.73
2022-11-09T14:12:23.316Z,4.83
2022-11-09T14:15:38.183Z,4.47
2022-11-09T14:18:42.714Z,4.63
2022-11-09T14:21:47.850Z,6.73
2022-11-09T14:24:40.810Z,5.80
2022-11-09T14:27:29.243Z,6.27
2022-11-09T14:30:25.052Z,5.80
2022-11-09T14:33:28.284Z,5.53
2022-11-09T14:36:17.155Z,5.00
2022-11-09T14:39:23.881Z,5.30
2022-11-09T14:42:22.107Z,5.53
2022-11-09T14:45:18.165Z,5.83
2022-11-09T14:48:08.225Z,6.80
2022-11-09T14:51:00.669Z,5.60
2022-11-09T14:53:51.641Z,17.70
2022-11-09T14:56:45.056Z,22.27
2022-11-09T14:59:36.948Z,17.73
2022-11-09T15:02:27.436Z,16.10
2022-11-09T15:05:39.739Z,7.70
2022-11-09T15:08:28.533Z,5.00
2022-11-09T15:11:17.027Z,24.80
2022-11-09T15:14:29.459Z,5.13
2022-11-09T15:17:25.636Z,12.00
2022-11-09T15:20:34.656Z,7.20
2022-11-09T15:23:38.700Z,14.43
2022-11-09T15:26:38.590Z,6.70
2022-11-09T15:29:41.669Z,6.87
2022-11-09T15:32:30.565Z,11.80
2022-11-09T15:35:21.352Z,32.40
2022-11-09T15:38:32.023Z,20.63
2022-11-09T15:41:23.978Z,7.27
2022-11-09T15:44:17.181Z,8.17
2022-11-09T15:53:58.230Z,11.43
2022-11-09T15:56:47.289Z,10.10
2022-11-09T15:59:36.033Z,8.33
2022-11-09T16:02:27.536Z,11.07
2022-11-09T16:05:16.550Z,9.67
2022-11-09T16:08:07.652Z,9.43
2022-11-09T16:10:56.612Z,8.30
2022-11-09T16:18:10.739Z,8.23
2022-11-09T16:20:59.902Z,8.70
2022-11-09T16:23:48.785Z,8.20
2022-11-09T16:26:37.418Z,7.70
2022-11-09T16:29:30.292Z,9.00
2022-11-09T16:32:18.676Z,13.53
2022-11-09T16:35:28.934Z,9.87
2022-11-09T16:38:19.079Z,10.20
2022-11-09T16:41:08.960Z,11.23
2022-11-09T16:43:59.466Z,7.60
2022-11-09T16:46:52.221Z,6.80
2022-11-09T16:49:41.667Z,7.43
2022-11-09T16:52:33.057Z,6.87
2022-11-09T16:55:22.133Z,7.63
2022-11-09T16:58:10.839Z,8.23
2022-11-09T17:01:17.859Z,7.80
2022-11-09T17:04:08.588Z,8.67
2022-11-09T17:06:57.310Z,7.90
2022-11-09T17:09:48.580Z,8.47
2022-11-09T17:12:37.512Z,6.80
2022-11-09T17:15:26.535Z,7.37
2022-11-09T17:18:16.125Z,7.07
2022-11-09T17:21:04.873Z,10.07
2022-11-09T17:23:54.393Z,8.40
2022-11-09T17:26:45.636Z,8.60
2022-11-09T17:29:34.502Z,9.07
2022-11-09T17:32:27.355Z,8.20
2022-11-09T17:35:16.151Z,8.80
2022-11-09T17:38:05.257Z,8.23
2022-11-09T17:40:54.503Z,7.67
2022-11-09T17:43:47.853Z,8.50
2022-11-09T17:46:36.547Z,8.50
2022-11-09T17:49:25.191Z,8.63
2022-11-09T17:52:13.954Z,7.00
2022-11-09T17:55:02.793Z,7.30
2022-11-09T17:57:51.558Z,9.17
2022-11-09T18:00:43.109Z,8.47
2022-11-09T18:03:35.012Z,12.50
2022-11-09T18:06:26.277Z,11.00
2022-11-09T18:09:40.151Z,9.73
2022-11-09T18:12:25.662Z,10.03
2022-11-09T18:15:14.583Z,11.93
2022-11-09T18:18:06.074Z,12.03
2022-11-09T18:20:54.582Z,12.70
2022-11-09T18:23:44.014Z,12.10
2022-11-09T18:26:34.335Z,11.60
2022-11-09T18:29:23.129Z,12.07
2022-11-09T18:32:11.827Z,12.70
2022-11-09T18:35:03.114Z,13.00
2022-11-09T18:37:51.605Z,12.93
2022-11-09T18:40:40.176Z,13.20
2022-11-09T18:43:28.662Z,12.50
2022-11-09T18:46:20.918Z,10.80
2022-11-09T18:49:14.048Z,10.57
2022-11-09T18:52:06.878Z,10.57
2022-11-09T18:54:56.876Z,10.20
2022-11-09T18:57:45.991Z,9.93
2022-11-09T19:00:34.654Z,9.97
2022-11-09T19:03:23.582Z,12.97
2022-11-09T19:06:16.063Z,10.40
2022-11-09T19:09:19.786Z,12.50
2022-11-09T19:12:11.025Z,11.77
2022-11-09T19:14:59.914Z,11.60
2022-11-09T19:17:48.554Z,11.40
2022-11-09T19:20:40.691Z,12.17
2022-11-09T19:23:34.180Z,10.33
2022-11-09T19:26:26.169Z,7.90
2022-11-09T19:29:17.520Z,7.57
2022-11-09T19:32:07.086Z,9.10
2022-11-09T19:34:55.825Z,7.70
2022-11-09T19:37:44.505Z,10.33
2022-11-09T19:40:39.372Z,10.17
2022-11-09T19:43:31.247Z,8.80
2022-11-09T19:46:20.926Z,7.90
2022-11-09T19:49:10.009Z,8.03
2022-11-09T19:51:58.970Z,8.20
2022-11-09T19:54:47.506Z,8.70
2022-11-09T19:57:36.057Z,7.80
2022-11-09T20:00:27.264Z,7.23
2022-11-09T20:03:16.070Z,6.40
2022-11-09T20:06:06.469Z,8.23
2022-11-09T20:08:55.859Z,7.40
2022-11-09T20:11:57.078Z,6.70
2022-11-09T20:14:45.884Z,5.57
2022-11-09T20:17:37.105Z,6.83
2022-11-09T20:20:25.893Z,6.03
2022-11-09T20:23:19.041Z,6.20
2022-11-09T20:26:14.101Z,7.13
2022-11-09T20:29:02.806Z,10.13
2022-11-09T20:31:52.108Z,8.87
2022-11-09T20:34:43.485Z,8.20
2022-11-09T20:37:32.098Z,7.33
2022-11-09T20:40:21.527Z,6.07
2022-11-09T20:43:10.225Z,6.37
2022-11-09T20:45:59.574Z,7.00
2022-11-09T20:48:55.962Z,7.03
2022-11-09T20:51:47.502Z,9.53
2022-11-09T20:54:35.955Z,7.20
2022-11-09T20:57:24.311Z,7.13
2022-11-09T21:00:18.149Z,6.90
2022-11-09T21:03:09.853Z,10.47
2022-11-09T21:05:59.672Z,8.83
2022-11-09T21:08:54.494Z,8.20
2022-11-09T21:12:03.038Z,7.47
2022-11-09T21:14:51.401Z,8.87
2022-11-09T21:17:39.963Z,9.40
2022-11-09T21:20:28.631Z,7.10
2022-11-09T21:23:29.716Z,7.20
2022-11-09T21:26:33.221Z,7.47
2022-11-09T21:29:37.575Z,5.90
2022-11-09T21:32:27.039Z,5.53
2022-11-09T21:35:15.738Z,6.37
2022-11-09T21:38:04.294Z,5.73
2022-11-09T21:40:53.661Z,6.70
2022-11-09T21:43:45.246Z,5.83
2022-11-09T21:46:34.321Z,7.00
2022-11-09T21:49:22.769Z,7.10
2022-11-09T21:52:11.400Z,5.77
2022-11-09T21:55:00.124Z,6.17
2022-11-09T21:57:51.778Z,10.60
2022-11-09T22:00:43.484Z,7.13
2022-11-09T22:03:32.568Z,6.43
2022-11-09T22:06:21.796Z,6.63
2022-11-09T22:09:15.674Z,7.30
2022-11-09T22:12:16.779Z,7.20
2022-11-09T22:15:17.693Z,8.10
2022-11-09T22:18:29.219Z,7.40
2022-11-09T22:21:15.197Z,7.33
2022-11-09T22:24:05.270Z,7.77
2022-11-09T22:26:54.579Z,8.57
2022-11-09T22:29:43.849Z,9.10
2022-11-09T22:32:32.235Z,12.53
2022-11-09T22:35:23.675Z,14.10
2022-11-09T22:38:12.363Z,12.80
2022-11-09T22:41:04.225Z,8.83
2022-11-09T22:43:54.011Z,8.83
2022-11-09T22:46:45.274Z,8.57
2022-11-09T22:49:36.676Z,11.43
2022-11-09T22:52:28.166Z,10.57
2022-11-09T22:55:18.422Z,10.83
2022-11-09T22:58:07.013Z,12.30
2022-11-09T23:00:56.087Z,10.10
2022-11-09T23:03:45.607Z,10.50
2022-11-09T23:06:35.879Z,11.83
2022-11-09T23:09:27.047Z,10.50
2022-11-09T23:12:15.808Z,10.43
2022-11-09T23:15:12.745Z,10.50
2022-11-09T23:18:14.461Z,7.30
2022-11-09T23:21:03.202Z,4.90
2022-11-09T23:23:52.674Z,5.30
2022-11-09T23:26:43.633Z,3.40
2022-11-09T23:29:32.391Z,3.27
2022-11-09T23:32:20.777Z,3.80
2022-11-09T23:35:11.153Z,2.43
2022-11-09T23:38:04.168Z,2.90
2022-11-09T23:40:53.239Z,3.67
2022-11-09T23:43:49.261Z,4.10
2022-11-09T23:46:38.488Z,4.40
2022-11-09T23:49:27.182Z,3.70
2022-11-09T23:52:15.898Z,4.20
2022-11-09T23:55:04.715Z,3.43
2022-11-09T23:57:53.414Z,3.90
